Time;durP1;ratioP1;P1;durP2;ratioP2;P2;SDS_P1;SDS_P2;PMS_P1;PMS_P2;Temp;Humidity;BMP_temperature;BMP_pressure;BME280_temperature;BME280_humidity;BME280_pressure;Samples;Min_cycle;Max_cycle;Signal;HPM_P1;HPM_P2
2022/04/27 00:00:18;;;;;;;115.33;57.87;;;4.50;99.90;;;;;;5009462;28;20265;-54
2022/04/27 00:02:44;;;;;;;123.05;58.47;;;4.40;99.90;;;;;;5009489;28;20482;-51
2022/04/27 00:05:10;;;;;;;127.00;59.15;;;4.40;99.90;;;;;;5009577;28;20097;-51
2022/04/27 00:07:36;;;;;;;114.22;57.67;;;4.40;99.90;;;;;;5009460;28;20393;-52
2022/04/27 00:10:03;;;;;;;119.20;59.92;;;4.40;99.90;;;;;;5012878;28;20018;-51
2022/04/27 00:12:28;;;;;;;112.18;58.00;;;4.40;99.90;;;;;;5013557;28;20089;-51
2022/04/27 00:14:54;;;;;;;118.20;58.25;;;4.30;99.90;;;;;;5013581;28;20796;-50
2022/04/27 00:17:20;;;;;;;114.03;60.28;;;4.30;99.90;;;;;;5013388;28;20393;-50
2022/04/27 00:19:45;;;;;;;111.90;57.92;;;4.30;99.90;;;;;;5033064;28;20610;-49
2022/04/27 00:22:12;;;;;;;110.45;56.88;;;4.30;99.90;;;;;;5033134;28;20056;-50
2022/04/27 00:24:39;;;;;;;114.43;57.10;;;4.30;99.90;;;;;;5033091;28;20029;-51
2022/04/27 00:27:05;;;;;;;111.50;56.47;;;4.30;99.90;;;;;;5032924;28;20030;-50
2022/04/27 00:29:31;;;;;;;109.38;57.00;;;4.40;99.90;;;;;;5033046;28;20025;-50
2022/04/27 00:31:57;;;;;;;119.93;59.05;;;4.30;99.90;;;;;;5032851;28;20049;-50
2022/04/27 00:34:23;;;;;;;108.63;56.08;;;4.40;99.90;;;;;;5032700;28;20503;-51
2022/04/27 00:36:48;;;;;;;107.10;56.65;;;4.30;99.90;;;;;;5032856;28;20025;-51
2022/04/27 00:39:14;;;;;;;115.38;58.00;;;4.20;99.90;;;;;;5032838;28;20095;-50
2022/04/27 00:41:58;;;;;;;115.85;58.35;;;4.20;99.90;;;;;;5032751;28;20022;-51
2022/04/27 00:44:32;;;;;;;115.70;57.53;;;4.20;99.90;;;;;;5032708;28;20022;-51
2022/04/27 00:46:59;;;;;;;120.47;58.67;;;4.20;99.90;;;;;;5031178;28;20040;-51
2022/04/27 00:49:26;;;;;;;116.32;56.42;;;4.20;99.90;;;;;;5032758;28;20035;-50
2022/04/27 00:51:51;;;;;;;;;;;4.00;99.90;;;;;;5033059;28;20156;-52
2022/04/27 00:54:22;;;;;;;107.05;51.28;;;3.90;99.90;;;;;;5032534;28;20327;-51
2022/04/27 00:56:50;;;;;;;108.63;54.67;;;3.90;99.90;;;;;;5035725;28;20033;-52
2022/04/27 00:59:16;;;;;;;107.90;53.22;;;3.90;99.90;;;;;;5021659;28;20034;-52
2022/04/27 01:01:42;;;;;;;98.50;49.67;;;3.80;99.90;;;;;;5021885;28;20028;-50
2022/04/27 01:04:08;;;;;;;99.25;49.90;;;3.70;99.90;;;;;;5031143;28;20014;-51
2022/04/27 01:06:35;;;;;;;101.07;50.83;;;3.80;99.90;;;;;;5031133;28;20033;-50
2022/04/27 01:09:02;;;;;;;93.88;48.50;;;3.70;99.90;;;;;;5028612;28;20029;-51
2022/04/27 01:11:27;;;;;;;105.88;51.58;;;3.70;99.90;;;;;;5031267;28;20030;-50
2022/04/27 01:13:53;;;;;;;89.60;49.50;;;3.80;99.90;;;;;;5030685;28;20023;-51
2022/04/27 01:16:19;;;;;;;103.38;52.63;;;3.90;99.90;;;;;;5031054;28;20100;-51
2022/04/27 01:18:45;;;;;;;105.95;53.53;;;3.80;99.90;;;;;;5030785;28;20026;-50
2022/04/27 01:21:12;;;;;;;112.40;56.53;;;3.80;99.90;;;;;;5012332;28;20029;-51
2022/04/27 01:23:39;;;;;;;;;;;3.70;99.90;;;;;;5031105;28;20025;-50
2022/04/27 01:26:08;;;;;;;106.05;55.15;;;3.60;99.90;;;;;;5030511;28;19944;-50
2022/04/27 01:28:37;;;;;;;95.88;51.78;;;3.70;99.90;;;;;;5030598;28;20034;-50
2022/04/27 01:31:07;;;;;;;102.90;51.67;;;3.80;99.90;;;;;;5028292;28;20032;-49
2022/04/27 01:33:34;;;;;;;101.68;53.20;;;3.80;99.90;;;;;;5030728;28;20045;-51
2022/04/27 01:36:03;;;;;;;105.30;53.30;;;3.90;99.90;;;;;;5030589;28;20380;-49
2022/04/27 01:38:40;;;;;;;95.50;51.47;;;3.90;99.90;;;;;;5029694;28;20354;-53
2022/04/27 01:41:06;;;;;;;104.78;51.63;;;4.00;99.90;;;;;;5028613;28;20018;-50
2022/04/27 01:43:33;;;;;;;95.18;52.08;;;3.80;99.90;;;;;;5012462;28;20366;-50
2022/04/27 01:46:00;;;;;;;99.93;49.45;;;3.80;99.90;;;;;;5030331;28;20037;-50
2022/04/27 01:48:27;;;;;;;92.95;48.63;;;3.80;99.90;;;;;;5030626;28;20041;-50
2022/04/27 01:50:53;;;;;;;106.97;53.60;;;3.60;99.90;;;;;;5030523;28;20033;-51
2022/04/27 01:56:04;;;;;;;98.15;52.70;;;3.60;99.90;;;;;;5032057;28;20040;-50
2022/04/27 01:58:30;;;;;;;99.68;52.33;;;3.70;99.90;;;;;;5031817;28;20022;-50
2022/04/27 02:00:56;;;;;;;106.13;53.03;;;3.70;99.90;;;;;;5031267;28;20091;-51
2022/04/27 02:03:22;;;;;;;102.85;52.25;;;3.70;99.90;;;;;;5031405;28;20017;-50
2022/04/27 02:05:49;;;;;;;115.63;56.13;;;3.70;99.90;;;;;;5031161;28;20052;-50
2022/04/27 02:08:15;;;;;;;119.97;60.75;;;3.60;99.90;;;;;;5030878;28;20484;-49
2022/04/27 02:10:41;;;;;;;111.15;56.80;;;3.60;99.90;;;;;;5013356;28;20811;-51
2022/04/27 02:13:08;;;;;;;123.45;59.38;;;3.60;99.90;;;;;;5031235;28;20112;-50
2022/04/27 02:15:35;;;;;;;110.93;58.17;;;3.50;99.90;;;;;;5031027;28;20056;-49
2022/04/27 02:18:01;;;;;;;116.00;57.70;;;3.50;99.90;;;;;;5030942;28;20029;-51
2022/04/27 02:20:27;;;;;;;118.13;58.67;;;3.40;99.90;;;;;;5030889;28;20108;-51
2022/04/27 02:22:54;;;;;;;125.25;59.58;;;3.40;99.90;;;;;;5029437;28;20045;-50
2022/04/27 02:25:20;;;;;;;120.90;59.58;;;3.60;99.90;;;;;;5023043;28;20033;-50
2022/04/27 02:27:46;;;;;;;118.65;59.22;;;3.60;99.90;;;;;;5029081;28;20512;-50
2022/04/27 02:30:13;;;;;;;119.50;61.50;;;3.50;99.90;;;;;;5031211;28;20484;-51
2022/04/27 02:32:39;;;;;;;125.82;60.95;;;3.50;99.90;;;;;;5029749;28;20193;-50
2022/04/27 02:35:06;;;;;;;130.73;67.13;;;3.50;99.90;;;;;;5030793;28;20021;-52
2022/04/27 02:37:32;;;;;;;154.13;77.10;;;3.40;99.90;;;;;;5030745;28;20404;-51
2022/04/27 02:39:59;;;;;;;167.40;76.45;;;3.30;99.90;;;;;;5030789;28;20025;-50
2022/04/27 02:42:25;;;;;;;162.10;74.40;;;3.30;99.90;;;;;;5030753;28;20393;-51
2022/04/27 02:44:51;;;;;;;158.20;74.57;;;3.30;99.90;;;;;;5030737;28;20304;-51
2022/04/27 02:47:18;;;;;;;150.63;74.07;;;3.30;99.90;;;;;;5030535;28;20064;-50
2022/04/27 02:52:28;;;;;;;148.88;71.18;;;3.30;99.90;;;;;;5030729;28;19958;-51
2022/04/27 02:54:54;;;;;;;147.68;74.32;;;3.30;99.90;;;;;;5030741;28;20022;-53
2022/04/27 02:57:20;;;;;;;139.43;69.07;;;3.30;99.90;;;;;;5030436;28;20061;-52
2022/04/27 02:59:46;;;;;;;130.27;62.15;;;3.30;99.90;;;;;;5020917;28;20443;-52
2022/04/27 03:02:11;;;;;;;141.52;67.65;;;3.30;99.90;;;;;;4993129;28;20037;-52
2022/04/27 03:04:37;;;;;;;131.30;64.05;;;3.20;99.90;;;;;;5010684;28;20025;-51
2022/04/27 03:07:03;;;;;;;139.93;68.13;;;3.10;99.90;;;;;;5010687;28;20034;-52
2022/04/27 03:09:29;;;;;;;122.13;63.37;;;3.00;99.90;;;;;;5010841;28;20167;-49
2022/04/27 03:11:55;;;;;;;142.55;69.60;;;3.00;99.90;;;;;;5010396;28;20895;-51
2022/04/27 03:14:21;;;;;;;125.90;63.40;;;3.00;99.90;;;;;;5009272;28;20022;-52
2022/04/27 03:16:48;;;;;;;130.77;62.40;;;3.10;99.90;;;;;;5010371;28;20199;-51
2022/04/27 03:19:14;;;;;;;115.10;59.60;;;3.00;99.90;;;;;;5010473;28;20462;-51
2022/04/27 03:21:39;;;;;;;125.75;60.17;;;3.00;99.90;;;;;;5022981;28;20040;-51
2022/04/27 03:24:06;;;;;;;134.75;63.70;;;2.90;99.90;;;;;;5028804;28;20025;-51
2022/04/27 03:26:32;;;;;;;122.40;60.53;;;2.90;99.90;;;;;;5030011;28;20122;-51
2022/04/27 03:28:59;;;;;;;138.82;65.25;;;2.80;99.90;;;;;;5029953;28;20065;-51
2022/04/27 03:31:25;;;;;;;130.18;64.25;;;2.80;99.90;;;;;;5029598;28;20507;-51
2022/04/27 03:33:50;;;;;;;123.97;61.65;;;2.90;99.90;;;;;;5030274;28;20091;-53
2022/04/27 03:36:16;;;;;;;124.88;61.03;;;3.00;99.90;;;;;;5030026;28;20478;-52
2022/04/27 03:38:43;;;;;;;119.45;62.20;;;3.00;99.90;;;;;;5029935;28;20030;-51
2022/04/27 03:41:09;;;;;;;121.75;60.75;;;3.00;99.90;;;;;;5029869;28;20025;-52
2022/04/27 03:43:35;;;;;;;119.93;57.38;;;3.00;99.90;;;;;;5029391;28;20064;-51
2022/04/27 03:46:00;;;;;;;118.20;59.45;;;3.00;99.90;;;;;;5029568;28;20026;-51
2022/04/27 03:48:26;;;;;;;125.30;62.28;;;3.10;99.90;;;;;;5030096;28;20033;-51
2022/04/27 03:50:52;;;;;;;134.35;66.35;;;3.10;99.90;;;;;;5029787;28;20473;-52
2022/04/27 03:53:18;;;;;;;136.75;66.72;;;3.10;99.90;;;;;;5029839;28;20450;-53
2022/04/27 03:55:43;;;;;;;144.90;70.97;;;3.10;99.90;;;;;;5029818;28;20036;-52
2022/04/27 03:58:09;;;;;;;130.35;65.30;;;3.10;99.90;;;;;;5029957;28;20117;-51
2022/04/27 04:00:35;;;;;;;128.82;64.22;;;3.10;99.90;;;;;;5013977;28;20026;-51
2022/04/27 04:03:02;;;;;;;141.23;65.53;;;3.00;99.90;;;;;;5010270;28;20104;-51
2022/04/27 04:05:28;;;;;;;136.20;68.07;;;3.00;99.90;;;;;;5009946;28;20026;-51
2022/04/27 04:07:54;;;;;;;158.13;75.22;;;3.20;99.90;;;;;;4992766;28;20120;-50
2022/04/27 04:10:19;;;;;;;151.80;73.35;;;3.20;99.90;;;;;;5009866;28;20109;-50
2022/04/27 04:12:45;;;;;;;155.82;75.88;;;3.30;99.90;;;;;;5009964;28;20038;-50
2022/04/27 04:15:12;;;;;;;156.95;73.78;;;3.20;99.90;;;;;;5010020;28;20050;-52
2022/04/27 04:17:40;;;;;;;165.97;75.37;;;3.40;99.90;;;;;;5009701;28;20024;-51
2022/04/27 04:20:07;;;;;;;174.50;78.43;;;3.40;99.90;;;;;;5009701;28;20620;-50
2022/04/27 04:22:33;;;;;;;167.77;72.70;;;3.30;99.90;;;;;;5011965;28;20025;-50
2022/04/27 04:30:29;;;;;;;180.23;76.90;;;3.60;99.90;;;;;;4988870;28;20076;-51
2022/04/27 04:32:54;;;;;;;191.73;79.22;;;3.60;99.90;;;;;;5029236;28;20077;-51
2022/04/27 04:35:20;;;;;;;189.13;82.35;;;3.70;99.90;;;;;;5029683;28;20022;-52
2022/04/27 04:37:45;;;;;;;173.23;78.13;;;3.60;99.90;;;;;;5029447;28;20087;-52
2022/04/27 04:40:11;;;;;;;158.10;74.55;;;3.80;99.90;;;;;;5029337;28;20026;-51
2022/04/27 04:42:37;;;;;;;160.18;75.43;;;3.70;99.90;;;;;;5029468;28;20108;-51
2022/04/27 04:45:03;;;;;;;147.07;71.20;;;3.60;99.90;;;;;;5029280;28;20037;-51
2022/04/27 04:47:30;;;;;;;188.32;83.93;;;3.70;99.90;;;;;;5029112;28;20037;-51
2022/04/27 04:49:55;;;;;;;177.52;78.30;;;3.60;99.90;;;;;;5029477;28;20025;-52
2022/04/27 04:52:21;;;;;;;175.45;79.88;;;3.60;99.90;;;;;;5029252;28;20091;-50
2022/04/27 04:54:47;;;;;;;174.57;80.95;;;3.70;99.90;;;;;;5011547;28;20029;-51
2022/04/27 04:57:12;;;;;;;169.65;77.65;;;3.70;99.90;;;;;;5032557;28;20021;-52
2022/04/27 04:59:38;;;;;;;166.23;77.88;;;3.80;99.90;;;;;;5032422;28;20030;-49
2022/04/27 05:02:04;;;;;;;195.98;81.28;;;3.90;99.90;;;;;;5032869;28;20029;-51
2022/04/27 05:04:30;;;;;;;214.95;80.53;;;3.90;99.90;;;;;;5032789;28;20112;-50
2022/04/27 05:06:56;;;;;;;187.27;85.18;;;3.80;99.90;;;;;;5032874;28;20033;-50
2022/04/27 05:09:22;;;;;;;181.65;82.00;;;3.80;99.90;;;;;;5032558;28;20432;-51
2022/04/27 05:11:51;;;;;;;177.40;81.57;;;4.00;99.90;;;;;;5033073;28;20029;-51
2022/04/27 05:14:17;;;;;;;153.02;79.28;;;4.20;99.90;;;;;;5032565;28;20433;-50
2022/04/27 05:16:42;;;;;;;154.68;74.47;;;4.20;99.90;;;;;;5032829;28;20112;-49
2022/04/27 05:19:08;;;;;;;170.63;79.45;;;4.40;99.90;;;;;;5032733;28;20108;-52
2022/04/27 05:21:34;;;;;;;164.80;78.85;;;4.50;99.90;;;;;;5020762;28;20053;-51
2022/04/27 05:23:59;;;;;;;154.38;79.88;;;4.50;99.90;;;;;;5012479;28;20036;-52
2022/04/27 05:26:25;;;;;;;150.13;74.93;;;4.60;99.90;;;;;;5012858;28;20037;-50
2022/04/27 05:34:19;;;;;;;144.80;72.45;;;4.90;99.90;;;;;;5012712;28;20083;-50
2022/04/27 05:36:45;;;;;;;143.23;74.25;;;5.10;99.90;;;;;;5012404;28;20034;-50
2022/04/27 05:39:11;;;;;;;153.30;76.88;;;5.10;99.90;;;;;;5012439;28;20041;-51
2022/04/27 05:41:36;;;;;;;146.88;73.43;;;5.30;99.90;;;;;;5012339;28;20037;-51
2022/04/27 05:44:12;;;;;;;147.30;72.82;;;5.40;99.90;;;;;;5012119;28;20041;-50
2022/04/27 05:46:39;;;;;;;153.73;76.53;;;5.50;99.90;;;;;;5011854;28;20046;-51
2022/04/27 05:49:05;;;;;;;145.50;74.05;;;5.60;99.90;;;;;;5011923;28;20022;-50
2022/04/27 05:51:31;;;;;;;143.40;74.97;;;5.70;99.90;;;;;;5012112;28;20038;-52
2022/04/27 05:53:57;;;;;;;146.63;77.47;;;5.80;99.90;;;;;;5011983;28;20026;-51
2022/04/27 05:56:24;;;;;;;150.25;74.60;;;5.90;99.90;;;;;;5011950;28;20481;-50
2022/04/27 05:58:53;;;;;;;153.38;80.13;;;6.00;99.90;;;;;;5013528;28;20041;-51
2022/04/27 06:01:19;;;;;;;139.55;76.68;;;6.10;99.90;;;;;;5031645;28;20088;-51
2022/04/27 06:03:45;;;;;;;147.32;76.22;;;6.20;99.90;;;;;;5031746;28;20116;-50
2022/04/27 06:06:11;;;;;;;138.70;72.68;;;6.30;99.90;;;;;;5013475;28;20474;-50
2022/04/27 06:08:36;;;;;;;139.73;74.32;;;6.40;99.90;;;;;;5031357;28;20044;-50
2022/04/27 06:11:02;;;;;;;148.15;74.35;;;6.60;99.90;;;;;;5031399;28;20575;-52
2022/04/27 06:13:29;;;;;;;138.52;74.82;;;6.60;99.90;;;;;;5031294;28;20378;-50
2022/04/27 06:15:54;;;;;;;134.65;71.43;;;6.80;99.90;;;;;;5031086;28;20030;-49
2022/04/27 06:18:20;;;;;;;138.60;70.57;;;6.90;99.90;;;;;;5031257;28;20053;-50
2022/04/27 06:20:46;;;;;;;139.55;69.00;;;7.10;99.90;;;;;;5026069;28;20062;-50
2022/04/27 06:23:13;;;;;;;131.82;66.28;;;7.20;99.90;;;;;;5011355;28;20029;-51
2022/04/27 06:25:41;;;;;;;128.30;66.72;;;7.30;99.90;;;;;;5011306;28;20029;-49
2022/04/27 06:28:07;;;;;;;138.27;73.00;;;7.40;99.90;;;;;;5011092;28;20049;-51
2022/04/27 06:30:35;;;;;;;146.40;76.88;;;7.50;99.90;;;;;;5011254;28;20029;-51
2022/04/27 06:33:01;;;;;;;148.32;80.93;;;7.60;99.90;;;;;;5011184;28;20042;-49
2022/04/27 06:35:27;;;;;;;147.65;76.20;;;7.70;99.90;;;;;;5011076;28;20059;-52
2022/04/27 06:37:53;;;;;;;145.23;79.18;;;7.80;99.90;;;;;;5011454;28;20026;-51
2022/04/27 06:40:19;;;;;;;153.52;80.18;;;8.00;99.90;;;;;;5009797;28;20030;-52
2022/04/27 06:42:45;;;;;;;138.85;73.82;;;8.10;99.90;;;;;;5011119;28;20030;-52
2022/04/27 06:45:12;;;;;;;116.13;62.50;;;8.30;99.90;;;;;;5011071;28;20033;-51
2022/04/27 06:47:38;;;;;;;90.53;48.70;;;8.50;99.90;;;;;;5010725;28;20523;-51
2022/04/27 06:50:04;;;;;;;95.88;49.53;;;8.70;99.90;;;;;;5011144;28;20097;-52
2022/04/27 06:52:30;;;;;;;76.50;40.47;;;8.80;99.90;;;;;;5011064;28;20624;-52
2022/04/27 06:54:55;;;;;;;75.05;42.42;;;9.00;99.90;;;;;;5010870;28;20025;-51
2022/04/27 06:57:21;;;;;;;66.80;39.67;;;9.10;99.90;;;;;;5010891;28;20484;-51
2022/04/27 06:59:47;;;;;;;68.63;37.75;;;9.30;99.90;;;;;;5019731;28;20021;-51
2022/04/27 07:02:15;;;;;;;70.18;38.55;;;9.40;99.90;;;;;;5030643;28;20042;-51
2022/04/27 07:04:43;;;;;;;51.05;26.65;;;9.60;99.90;;;;;;5030429;28;20021;-50
2022/04/27 07:07:09;;;;;;;43.63;24.67;;;9.90;99.90;;;;;;5030239;28;20508;-50
2022/04/27 07:09:35;;;;;;;45.42;25.20;;;10.10;99.90;;;;;;5030255;28;20032;-50
2022/04/27 07:12:01;;;;;;;38.60;24.00;;;10.10;99.90;;;;;;5030655;28;20032;-52
2022/04/27 07:14:27;;;;;;;36.88;20.98;;;10.20;99.90;;;;;;5030257;28;20021;-52
2022/04/27 07:16:52;;;;;;;29.63;16.58;;;10.40;99.90;;;;;;5030395;28;20045;-51
2022/04/27 07:19:18;;;;;;;27.83;16.30;;;10.60;99.90;;;;;;5029545;28;20037;-50
2022/04/27 07:21:44;;;;;;;27.17;15.20;;;10.80;99.90;;;;;;5016938;28;20080;-50
2022/04/27 07:24:09;;;;;;;27.38;15.70;;;10.90;99.90;;;;;;5010406;28;20064;-50
2022/04/27 07:26:35;;;;;;;22.02;14.10;;;11.10;99.90;;;;;;5010168;28;20038;-51
2022/04/27 07:29:01;;;;;;;26.00;14.90;;;11.20;99.90;;;;;;5010024;28;20022;-51
2022/04/27 07:31:26;;;;;;;28.48;13.73;;;11.40;99.90;;;;;;5009919;28;20053;-50
2022/04/27 07:33:53;;;;;;;25.77;14.88;;;11.40;99.90;;;;;;5010335;28;20811;-48
2022/04/27 07:36:18;;;;;;;26.65;14.45;;;11.50;99.90;;;;;;5010291;28;20042;-52
2022/04/27 07:38:44;;;;;;;19.77;12.02;;;11.60;99.90;;;;;;5010375;28;20057;-50
2022/04/27 07:41:10;;;;;;;24.35;13.07;;;11.80;99.90;;;;;;5010274;28;20446;-50
2022/04/27 07:43:36;;;;;;;23.13;11.48;;;11.90;99.90;;;;;;5009696;28;20084;-50
2022/04/27 07:46:04;;;;;;;27.23;11.70;;;12.00;99.90;;;;;;5010120;28;20022;-51
2022/04/27 07:48:32;;;;;;;20.85;12.15;;;12.10;99.90;;;;;;5010500;28;20478;-51
2022/04/27 07:51:02;;;;;;;23.48;13.05;;;12.20;99.90;;;;;;5010215;28;20640;-51
2022/04/27 07:53:28;;;;;;;24.80;12.95;;;12.30;99.90;;;;;;5009978;28;20431;-51
2022/04/27 07:55:54;;;;;;;24.88;13.35;;;12.50;99.90;;;;;;5009929;28;20026;-51
2022/04/27 07:58:19;;;;;;;24.33;12.35;;;12.60;99.90;;;;;;5010132;28;20628;-52
2022/04/27 08:00:45;;;;;;;23.50;13.15;;;12.60;99.90;;;;;;5026984;28;20017;-51
2022/04/27 08:03:11;;;;;;;18.45;11.00;;;12.60;99.90;;;;;;5029775;28;20030;-52
2022/04/27 08:05:36;;;;;;;24.30;12.23;;;12.70;99.90;;;;;;5029390;28;20029;-53
2022/04/27 08:08:02;;;;;;;20.08;11.82;;;12.90;99.90;;;;;;5029693;28;20060;-51
2022/04/27 08:10:28;;;;;;;21.83;13.05;;;13.10;99.90;;;;;;5029369;28;20033;-52
2022/04/27 08:12:54;;;;;;;19.73;13.00;;;13.20;99.90;;;;;;5029708;28;20082;-52
2022/04/27 08:15:22;;;;;;;22.90;13.02;;;13.10;99.90;;;;;;5029417;28;20026;-50
2022/04/27 08:18:01;;;;;;;23.23;13.65;;;13.30;99.90;;;;;;5029584;28;20036;-51
2022/04/27 08:23:34;;;;;;;25.77;13.30;;;13.40;99.90;;;;;;5010188;28;20081;-50
2022/04/27 08:26:02;;;;;;;23.77;13.68;;;13.30;99.90;;;;;;5009932;28;20025;-52
2022/04/27 08:28:28;;;;;;;22.40;13.32;;;13.30;99.90;;;;;;5009581;28;20446;-50
2022/04/27 08:30:55;;;;;;;19.98;11.25;;;13.50;99.90;;;;;;5010891;28;20326;-51
2022/04/27 08:33:21;;;;;;;16.43;9.60;;;13.60;99.90;;;;;;5013442;28;20049;-51
2022/04/27 08:35:47;;;;;;;16.70;9.82;;;13.60;99.90;;;;;;5013693;28;20565;-52
2022/04/27 08:38:13;;;;;;;14.87;9.07;;;13.70;99.90;;;;;;5013512;28;20038;-50
2022/04/27 08:40:41;;;;;;;14.75;8.55;;;14.00;99.90;;;;;;5013253;28;20457;-50
2022/04/27 08:43:09;;;;;;;17.00;9.05;;;14.00;99.90;;;;;;5013394;28;20489;-51
2022/04/27 08:45:35;;;;;;;15.90;9.38;;;14.20;99.90;;;;;;5013110;28;20026;-49
2022/04/27 08:48:01;;;;;;;16.25;10.20;;;14.40;99.90;;;;;;5013319;28;20034;-51
2022/04/27 08:50:28;;;;;;;18.65;11.05;;;14.40;99.90;;;;;;5013251;28;20022;-50
2022/04/27 08:52:55;;;;;;;15.85;9.13;;;14.40;99.90;;;;;;5013107;28;20029;-51
2022/04/27 08:55:21;;;;;;;15.32;9.32;;;14.30;99.90;;;;;;5013199;28;20030;-50
2022/04/27 08:57:48;;;;;;;11.10;7.13;;;14.30;99.90;;;;;;5013161;28;20034;-51
2022/04/27 09:00:18;;;;;;;20.98;10.30;;;14.30;99.90;;;;;;5025757;28;20025;-50
2022/04/27 09:02:45;;;;;;;17.05;8.90;;;14.20;99.90;;;;;;5032701;28;20037;-51
2022/04/27 09:05:16;;;;;;;13.40;8.65;;;14.10;99.90;;;;;;5014836;28;20023;-49
2022/04/27 09:07:51;;;;;;;14.05;8.27;;;14.10;99.90;;;;;;5032892;28;20100;-51
2022/04/27 09:10:19;;;;;;;15.38;9.07;;;14.00;99.90;;;;;;5032622;28;20036;-50
2022/04/27 09:12:53;;;;;;;14.23;8.32;;;13.70;99.90;;;;;;5032466;28;20029;-49
2022/04/27 09:15:21;;;;;;;13.70;7.78;;;13.80;99.90;;;;;;5032094;28;20449;-50
2022/04/27 09:20:54;;;;;;;13.00;7.93;;;13.60;99.90;;;;;;5028162;28;20044;-50
2022/04/27 09:23:40;;;;;;;14.35;8.32;;;13.80;99.90;;;;;;5012549;28;20030;-51
2022/04/27 09:26:18;;;;;;;14.88;7.32;;;14.00;99.90;;;;;;5012553;28;20569;-50
2022/04/27 09:28:46;;;;;;;;;;;14.20;99.90;;;;;;5013147;28;20080;-51
2022/04/27 09:31:29;;;;;;;13.32;7.60;;;14.50;99.90;;;;;;5012367;28;19917;-50
2022/04/27 09:34:00;;;;;;;12.60;7.15;;;14.70;99.90;;;;;;5012301;28;20562;-50
2022/04/27 09:36:27;;;;;;;10.75;7.05;;;15.10;99.90;;;;;;5012329;28;20176;-50
2022/04/27 09:38:54;;;;;;;12.07;8.23;;;15.50;99.90;;;;;;5012342;28;20561;-49
2022/04/27 09:41:36;;;;;;;;;;;15.70;99.90;;;;;;5012115;28;20045;-51
2022/04/27 09:44:03;;;;;;;10.98;6.22;;;15.80;99.90;;;;;;5011911;28;19916;-52
2022/04/27 09:46:28;;;;;;;12.90;6.70;;;16.00;99.90;;;;;;5011817;28;20030;-51
2022/04/27 09:49:11;;;;;;;12.80;7.20;;;15.90;96.40;;;;;;5011991;28;20045;-53
2022/04/27 09:51:46;;;;;;;14.23;6.22;;;16.00;99.90;;;;;;5010759;28;20687;-51
2022/04/27 09:54:16;;;;;;;10.23;6.38;;;15.90;96.70;;;;;;5009775;28;20590;-49
2022/04/27 09:56:48;;;;;;;10.93;7.30;;;15.50;97.10;;;;;;5009854;28;20037;-48
2022/04/27 09:59:16;;;;;;;12.07;6.90;;;15.20;98.40;;;;;;5014505;28;20097;-52
2022/04/27 10:01:43;;;;;;;11.75;6.57;;;15.30;99.70;;;;;;5029739;28;20033;-51
2022/04/27 10:04:11;;;;;;;25.88;7.28;;;15.30;99.20;;;;;;5012083;28;20095;-49
2022/04/27 10:06:37;;;;;;;9.93;5.32;;;15.40;99.90;;;;;;5013376;28;20038;-48
2022/04/27 10:09:04;;;;;;;8.65;5.53;;;15.70;99.90;;;;;;5011495;28;20083;-50
2022/04/27 10:11:33;;;;;;;8.50;5.55;;;16.20;99.10;;;;;;5011435;28;20112;-50
2022/04/27 10:14:00;;;;;;;8.93;5.13;;;16.30;96.00;;;;;;5011709;28;20466;-50
2022/04/27 10:16:27;;;;;;;11.13;6.07;;;16.60;99.40;;;;;;5011201;28;20112;-50
2022/04/27 10:18:53;;;;;;;9.95;5.05;;;17.10;96.30;;;;;;5010063;28;20033;-49
2022/04/27 10:21:57;;;;;;;6.82;4.22;;;17.30;97.30;;;;;;5021085;28;20018;-49
2022/04/27 10:24:49;;;;;;;9.05;5.13;;;17.30;92.60;;;;;;5031259;28;20028;-49
2022/04/27 10:27:22;;;;;;;7.43;4.43;;;17.30;91.20;;;;;;5027415;28;20041;-51
2022/04/27 10:29:57;;;;;;;9.93;4.10;;;17.30;91.90;;;;;;5072845;23;20406;-50
2022/04/27 10:32:51;;;;;;;7.85;4.75;;;17.40;90.30;;;;;;4990305;28;20070;-50
2022/04/27 10:35:19;;;;;;;7.40;4.97;;;17.50;92.50;;;;;;4979489;28;20039;-50
2022/04/27 10:37:59;;;;;;;7.95;5.43;;;17.60;90.10;;;;;;4999679;28;20088;-51
2022/04/27 10:40:35;;;;;;;8.93;5.15;;;17.50;90.00;;;;;;5009607;28;20022;-50
2022/04/27 10:43:07;;;;;;;9.35;5.93;;;17.70;90.10;;;;;;5008620;28;20026;-51
2022/04/27 10:45:44;;;;;;;8.75;5.10;;;17.50;88.30;;;;;;5007547;28;20601;-51
2022/04/27 10:48:27;;;;;;;8.43;5.40;;;17.50;90.50;;;;;;5010444;28;20419;-50
2022/04/27 10:51:02;;;;;;;12.70;4.90;;;17.50;90.20;;;;;;4990184;28;20053;-50
2022/04/27 10:53:40;;;;;;;9.70;5.05;;;17.60;87.70;;;;;;5008838;28;20025;-50
2022/04/27 10:56:22;;;;;;;7.18;4.45;;;17.50;89.20;;;;;;5010426;28;20064;-51
2022/04/27 10:58:48;;;;;;;8.02;4.43;;;17.40;87.30;;;;;;4976091;28;20073;-49
2022/04/27 11:01:19;;;;;;;7.13;4.80;;;17.30;90.10;;;;;;5010137;28;20087;-50
2022/04/27 11:03:55;;;;;;;9.65;5.53;;;17.60;84.40;;;;;;5010110;28;20024;-50
2022/04/27 11:06:22;;;;;;;7.75;4.88;;;17.50;79.40;;;;;;5008663;28;20040;-52
2022/04/27 11:09:08;;;;;;;10.13;4.95;;;17.90;84.90;;;;;;5010099;28;20381;-49
2022/04/27 11:11:53;;;;;;;10.25;4.65;;;18.00;81.50;;;;;;5007894;28;20077;-50
2022/04/27 11:14:31;;;;;;;5.68;3.40;;;18.00;74.80;;;;;;5008509;28;20429;-51
2022/04/27 11:16:57;;;;;;;7.10;4.57;;;17.50;73.50;;;;;;5008004;28;20483;-51
2022/04/27 11:19:34;;;;;;;8.50;4.35;;;17.40;77.10;;;;;;4991981;28;20498;-49
2022/04/27 11:22:11;;;;;;;6.28;4.32;;;17.20;79.60;;;;;;5008363;28;20014;-50
2022/04/27 11:24:36;;;;;;;7.70;4.72;;;17.40;79.00;;;;;;5007360;28;20405;-50
2022/04/27 11:27:03;;;;;;;10.85;5.00;;;17.30;81.20;;;;;;5009832;28;20067;-50
2022/04/27 11:29:30;;;;;;;10.43;5.65;;;17.30;82.70;;;;;;5008559;28;20038;-50
2022/04/27 11:31:55;;;;;;;7.97;3.90;;;17.10;83.80;;;;;;4990921;28;20568;-51
2022/04/27 11:34:26;;;;;;;6.57;3.67;;;16.90;80.90;;;;;;5009561;28;20097;-48
2022/04/27 11:36:54;;;;;;;7.45;3.20;;;16.90;81.20;;;;;;5007260;28;20153;-50
2022/04/27 11:39:21;;;;;;;8.85;3.60;;;16.70;83.00;;;;;;5010225;28;20105;-50
2022/04/27 11:41:46;;;;;;;5.30;2.90;;;16.70;85.10;;;;;;5009137;28;20397;-49
2022/04/27 11:44:19;;;;;;;7.53;3.50;;;16.50;83.00;;;;;;5009573;28;20033;-51
2022/04/27 11:46:45;;;;;;;4.05;2.60;;;16.20;84.20;;;;;;5009320;28;20058;-50
2022/04/27 11:49:11;;;;;;;6.68;3.13;;;16.10;84.30;;;;;;5008933;28;20068;-50
2022/04/27 11:51:36;;;;;;;5.32;3.15;;;15.80;83.70;;;;;;5008977;28;20029;-51
2022/04/27 11:54:02;;;;;;;6.93;2.80;;;15.60;85.40;;;;;;4991497;28;20033;-50
2022/04/27 11:56:36;;;;;;;5.38;2.92;;;15.40;85.30;;;;;;5009039;28;20033;-49
2022/04/27 11:59:08;;;;;;;7.00;3.28;;;15.30;87.30;;;;;;5008954;28;20032;-52
2022/04/27 12:01:34;;;;;;;6.43;3.67;;;15.20;87.30;;;;;;5006685;28;20030;-50
2022/04/27 12:04:01;;;;;;;6.10;3.03;;;15.10;88.40;;;;;;5008868;28;20021;-50
2022/04/27 12:06:28;;;;;;;7.25;3.22;;;15.00;90.30;;;;;;5013010;28;20144;-51
2022/04/27 12:09:00;;;;;;;8.98;3.28;;;14.80;89.80;;;;;;5013030;28;20033;-51
2022/04/27 12:11:26;;;;;;;7.80;4.32;;;14.80;90.10;;;;;;5012911;28;20108;-51
2022/04/27 12:13:54;;;;;;;6.68;4.13;;;14.70;90.50;;;;;;5012943;28;20105;-50
2022/04/27 12:16:20;;;;;;;6.32;3.40;;;14.70;90.90;;;;;;5012699;28;20026;-51
2022/04/27 12:18:53;;;;;;;6.78;3.17;;;14.60;90.80;;;;;;5013156;28;20025;-52
2022/04/27 12:21:24;;;;;;;6.55;3.03;;;14.60;90.60;;;;;;5011016;28;20026;-51
2022/04/27 12:23:51;;;;;;;8.60;3.15;;;14.60;90.90;;;;;;4994966;28;20493;-51
2022/04/27 12:26:17;;;;;;;7.53;3.33;;;14.60;90.30;;;;;;5012599;28;20042;-51
2022/04/27 12:28:49;;;;;;;6.22;3.13;;;14.70;91.30;;;;;;5013058;28;20036;-51
2022/04/27 12:31:17;;;;;;;8.80;3.50;;;14.70;90.00;;;;;;5010233;28;20038;-50
2022/04/27 12:33:50;;;;;;;10.20;4.20;;;14.80;90.90;;;;;;5012653;28;20037;-49
2022/04/27 12:39:20;;;;;;;11.00;4.80;;;14.70;90.40;;;;;;5010064;28;20036;-50
2022/04/27 12:41:47;;;;;;;11.45;4.95;;;14.80;90.40;;;;;;5012651;28;20029;-50
2022/04/27 12:44:15;;;;;;;7.22;3.83;;;14.80;91.90;;;;;;5009853;28;20029;-52
2022/04/27 12:47:16;;;;;;;7.22;4.10;;;14.80;91.60;;;;;;5012328;28;20508;-49
2022/04/27 12:49:50;;;;;;;5.97;3.58;;;14.80;92.00;;;;;;5012287;28;20026;-50
2022/04/27 12:52:35;;;;;;;6.70;3.92;;;14.80;92.10;;;;;;5010059;28;20022;-52
2022/04/27 12:55:07;;;;;;;7.10;3.78;;;14.70;92.20;;;;;;5010939;28;20129;-50
2022/04/27 12:57:49;;;;;;;7.15;4.00;;;14.70;92.50;;;;;;5008507;28;20037;-50
2022/04/27 13:00:20;;;;;;;9.27;4.28;;;14.70;92.40;;;;;;5009324;28;20022;-51
2022/04/27 13:02:46;;;;;;;7.30;3.67;;;14.70;91.60;;;;;;5012086;28;20113;-50